Oosterdam — PBKH — position and weather

sailwx.info

Track history (hours):
 
Tides and Currents Weather Stations Pressure Air Temp Water Temp Dewpoint Dewpoint Depression Visibility Wind Speed Wind Dir Waves Ship Positions

Oosterdam

Operator: Holland America Line

Last reported at 2017-Aug-20 13:29 UTC. Time now 2017-Aug-20 13:40 UTC.
Position N 47°38' W 122°23'.

Type: Passenger vessel. MMSI: 245417000.

Date/timePositionNaut miles runAvg speedWind from/ knotsBaromVisibWave heightAir tempDewpointWater temp
2017-Aug-20 13:29N 47°38' W 122°23'0 0.2
2017-Aug-20 13:01N 47°38' W 122°23'2 3.6
2017-Aug-20 12:31N 47°38' W 122°26'611.4
2017-Aug-20 12:01N 47°43' W 122°27'713.8
2017-Aug-20 11:30N 47°50' W 122°28'612.7
2017-Aug-20 11:01N 47°56' W 122°32'713.6
2017-Aug-20 10:30N 48°01' W 122°38'715.1
2017-Aug-20 10:00N 48°08' W 122°43'815.8
2017-Aug-20 09:30N 48°11' W 122°54'815.9
2017-Aug-20 09:00N 48°12' W 123°06'714.0
2017-Aug-20 08:31N 48°11' W 123°16'612.5
2017-Aug-20 08:00N 48°10' W 123°25'714.3
2017-Aug-20 07:30N 48°17' W 123°28'612.8
2017-Aug-20 07:01N 48°23' W 123°24'2 3.9
2017-Aug-20 06:30N 48°25' W 123°23'0 0.0
2017-Aug-20 06:00N 48°25' W 123°23'0 0.0
2017-Aug-20 05:30N 48°25' W 123°23'0 0.0
2017-Aug-20 05:00N 48°25' W 123°23'0 0.0
2017-Aug-20 04:30N 48°25' W 123°23'0 0.0
2017-Aug-20 04:00N 48°25' W 123°23'0 0.0
2017-Aug-20 03:30N 48°25' W 123°23'0 0.0
2017-Aug-20 03:00N 48°25' W 123°23'0 0.0
2017-Aug-20 02:30N 48°25' W 123°23'0 0.1
2017-Aug-20 02:00N 48°25' W 123°23'0 0.1
2017-Aug-20 01:30N 48°25' W 123°23'0 0.0
2017-Aug-20 01:01N 48°25' W 123°23'1 2.1
2017-Aug-20 00:31N 48°24' W 123°25'611.1
2017-Aug-20 00:01N 48°19' W 123°25'714.4
2017-Aug-19 23:31N 48°14' W 123°33'1019.1
2017-Aug-19 23:00N 48°14' W 123°48'1121.9
2017-Aug-19 22:31N 48°16' W 124°03'1122.3
2017-Aug-19 22:01N 48°21' W 124°19'1019.7
2017-Aug-19 21:31N 48°25' W 124°32'1019.9
2017-Aug-19 21:00N 48°28' W 124°47'1020.4
2017-Aug-19 20:30N 48°28' W 125°02'1020.2
2017-Aug-19 20:01N 48°31' W 125°16'1121.5
2017-Aug-19 19:31N 48°38' W 125°29'1121.8
2017-Aug-19 19:01N 48°44' W 125°42'1121.9
2017-Aug-19 18:30N 48°51' W 125°55'1121.3
2017-Aug-19 18:01N 48°59' W 126°07'1121.4
2017-Aug-19 17:31N 49°05' W 126°19'1121.5
2017-Aug-19 17:01N 49°13' W 126°31'1121.7
2017-Aug-19 16:30N 49°20' W 126°44'1121.7
2017-Aug-19 16:01N 49°27' W 126°57'1122.1
2017-Aug-19 15:29N 49°33' W 127°11'8322.5
2017-Aug-19 11:49N 50°28' W 128°47'4022.3
2017-Aug-19 10:01N 51°01' W 129°24'421.9
2017-Aug-19 09:51N 51°04' W 129°26'822.7
2017-Aug-19 09:30N 51°12' W 129°30'1122.7
2017-Aug-19 09:00N 51°22' W 129°36'6521.7
2017-Aug-19 06:00N 52°24' W 130°12'25110.4 250 / 241024.0 5.4 14.1 16.0
2017-Aug-18 06:00N 55°54' W 134°06'205 8.5 220 / 281007.0 5.4 12.6 15.0
2017-Aug-17 06:00N 58°30' W 138°12'63 3.2 160 / 81011.0 5.4 13.0 18.0
2017-Aug-16 10:22N 58°19' W 136°14'616.6
2017-Aug-16 10:00N 58°20' W 136°03'815.5
2017-Aug-16 09:30N 58°19' W 135°48'1019.2
2017-Aug-16 09:00N 58°15' W 135°31'3612.1
2017-Aug-16 06:00N 58°06' W 134°24'120 6.7 050 / 41007.0 2.2 10.5 16.0
2017-Aug-15 12:00N 56°06' W 134°24'1212.0 130 / 251008.0 5.4 11.3 12.0
2017-Aug-15 11:00N 55°54' W 134°24'1818.3 200 / 241009.0 5.4 11.7 12.0
2017-Aug-15 10:00N 55°36' W 134°18'2524.9 180 / 181010.0 5.4 13.2 14.0
2017-Aug-15 09:00N 55°12' W 134°06'1212.5 190 / 171011.0 5.4 13.5 12.0
2017-Aug-15 08:00N 55°00' W 134°00'3718.7 180 / 201011.010.8 13.2 12.0
2017-Aug-15 06:00N 54°24' W 133°42'13527.0 190 / 191015.0 5.4 13.6 17.0
2017-Aug-15 01:00N 52°12' W 132°54'3737.2 270 / 61016.0 5.4 14.312.2
2017-Aug-15 00:00N 52°42' W 132°18'2828.1 340 / 101016.0 5.4 15.913.7
2017-Aug-14 23:00N 52°18' W 131°54'1616.3 130 / 151014.010.8 15.6 13.0
2017-Aug-14 22:00N 52°06' W 131°36'2323.3 130 / 101014.010.8 15.8 13.0
2017-Aug-14 21:00N 51°48' W 131°12'1919.1 150 / 91014.010.8 15.5 13.0
2017-Aug-14 20:00N 51°36' W 130°48'9521.1 160 / 71014.010.8 15.2 15.0
2017-Aug-14 15:29N 50°33' W 128°55'11521.3
2017-Aug-14 10:06N 49°18' W 126°40'221.1
2017-Aug-14 10:00N 49°17' W 126°38'1121.1
2017-Aug-14 09:30N 49°10' W 126°25'1121.1
2017-Aug-14 09:00N 49°04' W 126°12'5428.0
2017-Aug-14 09:00N 49°00' W 126°06'510.3 300 / 231016.010.8 13.2 15.0
2017-Aug-14 08:30N 48°57' W 125°60'1020.7
2017-Aug-14 08:00N 48°51' W 125°47'1020.5
2017-Aug-14 07:30N 48°45' W 125°35'1021.0
2017-Aug-14 07:00N 48°38' W 125°23'1020.9
2017-Aug-14 06:30N 48°32' W 125°10'1122.3
2017-Aug-14 06:00N 48°31' W 124°53'4223.1
2017-Aug-14 06:00N 48°30' W 124°48'715.3 280 / 151019.0 5.4 12.6 17.0
2017-Aug-14 05:30N 48°29' W 124°37'1121.6
2017-Aug-14 05:00N 48°25' W 124°22'1121.3
2017-Aug-14 04:30N 48°21' W 124°07'1121.2
2017-Aug-14 04:00N 48°17' W 123°52'1020.6
2017-Aug-14 03:30N 48°16' W 123°37'917.8
2017-Aug-14 03:00N 48°12' W 123°25'4 8.5
2017-Aug-14 02:30N 48°09' W 123°20'917.3
2017-Aug-14 02:01N 48°13' W 123°08'1019.9
2017-Aug-14 01:30N 48°12' W 122°54'918.3
2017-Aug-14 01:00N 48°08' W 122°41'1019.9
2017-Aug-14 00:30N 47°59' W 122°35'1020.1
2017-Aug-14 00:01N 47°50' W 122°27'816.6
2017-Aug-13 23:30N 47°42' W 122°27'510.5
2017-Aug-13 23:00N 47°37' W 122°24'1 1.4
2017-Aug-13 22:28N 47°38' W 122°23'0 0.0
2017-Aug-13 21:58N 47°38' W 122°23'0 0.0
2017-Aug-13 21:28N 47°38' W 122°23'0 0.0
2017-Aug-13 20:58N 47°38' W 122°23'0 0.0
2017-Aug-13 20:28N 47°38' W 122°23'0 0.0
2017-Aug-13 19:58N 47°38' W 122°23'0 0.0
2017-Aug-13 19:28N 47°38' W 122°23'0 0.0
2017-Aug-13 18:58N 47°38' W 122°23'0 0.0
2017-Aug-13 18:28N 47°38' W 122°23'0 0.0
2017-Aug-13 17:58N 47°38' W 122°23'0 0.0
2017-Aug-13 17:28N 47°38' W 122°23'0 0.0
2017-Aug-13 16:58N 47°38' W 122°23'0 0.0
2017-Aug-13 16:28N 47°38' W 122°23'0 0.0
2017-Aug-13 15:58N 47°38' W 122°23'0 0.0
2017-Aug-13 15:28N 47°38' W 122°23'0 0.0
2017-Aug-13 14:58N 47°38' W 122°23'0 0.0
2017-Aug-13 14:28N 47°38' W 122°23'0 0.0
2017-Aug-13 13:58N 47°38' W 122°23'0 0.0
2017-Aug-13 13:28N 47°38' W 122°23'0 0.1
2017-Aug-13 13:00N 47°38' W 122°23'2 3.8
2017-Aug-13 12:30N 47°38' W 122°26'611.7
2017-Aug-13 12:01N 47°43' W 122°28'714.8
2017-Aug-13 11:31N 47°51' W 122°28'714.5
2017-Aug-13 11:00N 47°57' W 122°34'714.4
2017-Aug-13 10:30N 48°03' W 122°39'713.5
2017-Aug-13 10:00N 48°09' W 122°44'815.2
2017-Aug-13 09:30N 48°11' W 122°55'714.2
2017-Aug-13 09:00N 48°12' W 123°06'714.8
2017-Aug-13 08:31N 48°11' W 123°17'612.3
2017-Aug-13 08:01N 48°11' W 123°26'713.8
2017-Aug-13 07:31N 48°17' W 123°28'714.5
2017-Aug-13 07:00N 48°24' W 123°24'1 1.8
2017-Aug-13 06:28N 48°25' W 123°23'0 0.0
2017-Aug-13 05:58N 48°25' W 123°23'0 0.0
2017-Aug-13 05:28N 48°25' W 123°23'0 0.0
2017-Aug-13 04:58N 48°25' W 123°23'0 0.0
2017-Aug-13 04:28N 48°25' W 123°23'0 0.1
2017-Aug-13 03:58N 48°25' W 123°23'0 0.1
2017-Aug-13 03:28N 48°25' W 123°23'0 0.0
2017-Aug-13 02:58N 48°25' W 123°23'0 0.0
2017-Aug-13 02:28N 48°25' W 123°23'0 0.0
2017-Aug-13 01:58N 48°25' W 123°23'0 0.0
2017-Aug-13 01:28N 48°25' W 123°23'0 0.1
2017-Aug-13 01:00N 48°25' W 123°23'2 3.6
2017-Aug-13 00:30N 48°23' W 123°24'4 8.9
2017-Aug-13 00:00N 48°19' W 123°25'612.1
2017-Aug-12 23:30N 48°14' W 123°31'919.0
2017-Aug-12 23:00N 48°13' W 123°45'1019.9
2017-Aug-12 22:30N 48°15' W 123°60'1121.7
2017-Aug-12 22:00N 48°19' W 124°14'1122.5
2017-Aug-12 21:30N 48°24' W 124°30'1019.5
2017-Aug-12 21:00N 48°28' W 124°43'1019.1
2017-Aug-12 20:30N 48°28' W 124°57'1019.4
2017-Aug-12 20:00N 48°30' W 125°12'1121.0
2017-Aug-12 19:30N 48°36' W 125°25'1019.5
2017-Aug-12 19:00N 48°42' W 125°36'1122.0
2017-Aug-12 18:30N 48°49' W 125°48'1122.1
2017-Aug-12 18:00N 48°56' W 126°01'1121.8
2017-Aug-12 17:30N 49°03' W 126°14'1122.1
2017-Aug-12 17:00N 49°11' W 126°27'1122.1
2017-Aug-12 16:30N 49°18' W 126°40'1122.1
2017-Aug-12 16:00N 49°24' W 126°53'1122.5
2017-Aug-12 15:30N 49°31' W 127°07'7722.1
2017-Aug-12 12:00N 50°23' W 128°37'1122.4
2017-Aug-12 11:30N 50°30' W 128°50'1121.9
2017-Aug-12 11:01N 50°38' W 129°03'1122.0
2017-Aug-12 10:30N 50°46' W 129°15'1222.4
2017-Aug-12 09:59N 50°57' W 129°21'1122.2
2017-Aug-12 09:30N 51°07' W 129°27'1122.4
2017-Aug-12 09:00N 51°17' W 129°33'5334.8
2017-Aug-12 09:00N 51°12' W 129°30'1734.6 200 / 181010.010.8 14.6 18.0
2017-Aug-12 08:30N 51°28' W 129°39'1121.9
2017-Aug-12 08:00N 51°38' W 129°45'1121.8
2017-Aug-12 07:31N 51°48' W 129°51'1122.4
2017-Aug-12 07:00N 51°59' W 129°57'2121.0
2017-Aug-12 07:00N 52°00' W 130°00'1019.8 220 / 171013.0 5.4 13.8 19.0
2017-Aug-12 06:30N 52°09' W 130°04'1223.1
2017-Aug-12 06:01N 52°20' W 130°10'1122.9
2017-Aug-12 05:31N 52°31' W 130°16'1122.5
2017-Aug-12 05:00N 52°42' W 130°23'1122.7
2017-Aug-12 04:30N 52°52' W 130°29'1223.4
2017-Aug-12 04:01N 53°03' W 130°36'1223.7
2017-Aug-12 03:30N 53°14' W 130°42'1223.3
2017-Aug-12 02:59N 53°26' W 130°48'1123.6
2017-Aug-12 02:30N 53°37' W 130°52'177 8.6
2017-Aug-11 06:00N 55°54' W 134°06'   240 / 161016.0 5.4 12.7 16.0
Track history (hours):
 
Tides and Currents Weather Stations Pressure Air Temp Water Temp Dewpoint Dewpoint Depression Visibility Wind Speed Wind Dir Waves Ship Positions

Oosterdam

Operator: Holland America Line

Last reported at 2017-Aug-20 13:29 UTC. Time now 2017-Aug-20 13:40 UTC.
Position N 47°38' W 122°23'.

Type: Passenger vessel. MMSI: 245417000.

Date/timePositionNaut miles runAvg speedWind from/ knotsBaromVisibWave heightAir tempDewpointWater temp
2017-Aug-20 13:29N 47°38' W 122°23'0 0.2
2017-Aug-20 13:01N 47°38' W 122°23'2 3.6
2017-Aug-20 12:31N 47°38' W 122°26'611.4
2017-Aug-20 12:01N 47°43' W 122°27'713.8
2017-Aug-20 11:30N 47°50' W 122°28'612.7
2017-Aug-20 11:01N 47°56' W 122°32'713.6
2017-Aug-20 10:30N 48°01' W 122°38'715.1
2017-Aug-20 10:00N 48°08' W 122°43'815.8
2017-Aug-20 09:30N 48°11' W 122°54'815.9
2017-Aug-20 09:00N 48°12' W 123°06'714.0
2017-Aug-20 08:31N 48°11' W 123°16'612.5
2017-Aug-20 08:00N 48°10' W 123°25'714.3
2017-Aug-20 07:30N 48°17' W 123°28'612.8
2017-Aug-20 07:01N 48°23' W 123°24'2 3.9
2017-Aug-20 06:30N 48°25' W 123°23'0 0.0
2017-Aug-20 06:00N 48°25' W 123°23'0 0.0
2017-Aug-20 05:30N 48°25' W 123°23'0 0.0
2017-Aug-20 05:00N 48°25' W 123°23'0 0.0
2017-Aug-20 04:30N 48°25' W 123°23'0 0.0
2017-Aug-20 04:00N 48°25' W 123°23'0 0.0
2017-Aug-20 03:30N 48°25' W 123°23'0 0.0
2017-Aug-20 03:00N 48°25' W 123°23'0 0.0
2017-Aug-20 02:30N 48°25' W 123°23'0 0.1
2017-Aug-20 02:00N 48°25' W 123°23'0 0.1
2017-Aug-20 01:30N 48°25' W 123°23'0 0.0
2017-Aug-20 01:01N 48°25' W 123°23'1 2.1
2017-Aug-20 00:31N 48°24' W 123°25'611.1
2017-Aug-20 00:01N 48°19' W 123°25'714.4
2017-Aug-19 23:31N 48°14' W 123°33'1019.1
2017-Aug-19 23:00N 48°14' W 123°48'1121.9
2017-Aug-19 22:31N 48°16' W 124°03'1122.3
2017-Aug-19 22:01N 48°21' W 124°19'1019.7
2017-Aug-19 21:31N 48°25' W 124°32'1019.9
2017-Aug-19 21:00N 48°28' W 124°47'1020.4
2017-Aug-19 20:30N 48°28' W 125°02'1020.2
2017-Aug-19 20:01N 48°31' W 125°16'1121.5
2017-Aug-19 19:31N 48°38' W 125°29'1121.8
2017-Aug-19 19:01N 48°44' W 125°42'1121.9
2017-Aug-19 18:30N 48°51' W 125°55'1121.3
2017-Aug-19 18:01N 48°59' W 126°07'1121.4
2017-Aug-19 17:31N 49°05' W 126°19'1121.5
2017-Aug-19 17:01N 49°13' W 126°31'1121.7
2017-Aug-19 16:30N 49°20' W 126°44'1121.7
2017-Aug-19 16:01N 49°27' W 126°57'1122.1
2017-Aug-19 15:29N 49°33' W 127°11'8322.5
2017-Aug-19 11:49N 50°28' W 128°47'4022.3
2017-Aug-19 10:01N 51°01' W 129°24'421.9
2017-Aug-19 09:51N 51°04' W 129°26'822.7
2017-Aug-19 09:30N 51°12' W 129°30'1122.7
2017-Aug-19 09:00N 51°22' W 129°36'6521.7
2017-Aug-19 06:00N 52°24' W 130°12'25110.4 250 / 241024.0 5.4 14.1 16.0
2017-Aug-18 06:00N 55°54' W 134°06'205 8.5 220 / 281007.0 5.4 12.6 15.0
2017-Aug-17 06:00N 58°30' W 138°12'63 3.2 160 / 81011.0 5.4 13.0 18.0
2017-Aug-16 10:22N 58°19' W 136°14'616.6
2017-Aug-16 10:00N 58°20' W 136°03'815.5
2017-Aug-16 09:30N 58°19' W 135°48'1019.2
2017-Aug-16 09:00N 58°15' W 135°31'3612.1
2017-Aug-16 06:00N 58°06' W 134°24'120 6.7 050 / 41007.0 2.2 10.5 16.0
2017-Aug-15 12:00N 56°06' W 134°24'1212.0 130 / 251008.0 5.4 11.3 12.0
2017-Aug-15 11:00N 55°54' W 134°24'1818.3 200 / 241009.0 5.4 11.7 12.0
2017-Aug-15 10:00N 55°36' W 134°18'2524.9 180 / 181010.0 5.4 13.2 14.0
2017-Aug-15 09:00N 55°12' W 134°06'1212.5 190 / 171011.0 5.4 13.5 12.0
2017-Aug-15 08:00N 55°00' W 134°00'3718.7 180 / 201011.010.8 13.2 12.0
2017-Aug-15 06:00N 54°24' W 133°42'13527.0 190 / 191015.0 5.4 13.6 17.0
2017-Aug-15 01:00N 52°12' W 132°54'3737.2 270 / 61016.0 5.4 14.312.2
2017-Aug-15 00:00N 52°42' W 132°18'2828.1 340 / 101016.0 5.4 15.913.7
2017-Aug-14 23:00N 52°18' W 131°54'1616.3 130 / 151014.010.8 15.6 13.0
2017-Aug-14 22:00N 52°06' W 131°36'2323.3 130 / 101014.010.8 15.8 13.0
2017-Aug-14 21:00N 51°48' W 131°12'1919.1 150 / 91014.010.8 15.5 13.0
2017-Aug-14 20:00N 51°36' W 130°48'9521.1 160 / 71014.010.8 15.2 15.0
2017-Aug-14 15:29N 50°33' W 128°55'11521.3
2017-Aug-14 10:06N 49°18' W 126°40'221.1
2017-Aug-14 10:00N 49°17' W 126°38'1121.1
2017-Aug-14 09:30N 49°10' W 126°25'1121.1
2017-Aug-14 09:00N 49°04' W 126°12'5428.0
2017-Aug-14 09:00N 49°00' W 126°06'510.3 300 / 231016.010.8 13.2 15.0
2017-Aug-14 08:30N 48°57' W 125°60'1020.7
2017-Aug-14 08:00N 48°51' W 125°47'1020.5
2017-Aug-14 07:30N 48°45' W 125°35'1021.0
2017-Aug-14 07:00N 48°38' W 125°23'1020.9
2017-Aug-14 06:30N 48°32' W 125°10'1122.3
2017-Aug-14 06:00N 48°31' W 124°53'4223.1
2017-Aug-14 06:00N 48°30' W 124°48'715.3 280 / 151019.0 5.4 12.6 17.0
2017-Aug-14 05:30N 48°29' W 124°37'1121.6
2017-Aug-14 05:00N 48°25' W 124°22'1121.3
2017-Aug-14 04:30N 48°21' W 124°07'1121.2
2017-Aug-14 04:00N 48°17' W 123°52'1020.6
2017-Aug-14 03:30N 48°16' W 123°37'917.8
2017-Aug-14 03:00N 48°12' W 123°25'4 8.5
2017-Aug-14 02:30N 48°09' W 123°20'917.3
2017-Aug-14 02:01N 48°13' W 123°08'1019.9
2017-Aug-14 01:30N 48°12' W 122°54'918.3
2017-Aug-14 01:00N 48°08' W 122°41'1019.9
2017-Aug-14 00:30N 47°59' W 122°35'1020.1
2017-Aug-14 00:01N 47°50' W 122°27'816.6
2017-Aug-13 23:30N 47°42' W 122°27'510.5
2017-Aug-13 23:00N 47°37' W 122°24'1 1.4
2017-Aug-13 22:28N 47°38' W 122°23'0 0.0
2017-Aug-13 21:58N 47°38' W 122°23'0 0.0
2017-Aug-13 21:28N 47°38' W 122°23'0 0.0
2017-Aug-13 20:58N 47°38' W 122°23'0 0.0
2017-Aug-13 20:28N 47°38' W 122°23'0 0.0
2017-Aug-13 19:58N 47°38' W 122°23'0 0.0
2017-Aug-13 19:28N 47°38' W 122°23'0 0.0
2017-Aug-13 18:58N 47°38' W 122°23'0 0.0
2017-Aug-13 18:28N 47°38' W 122°23'0 0.0
2017-Aug-13 17:58N 47°38' W 122°23'0 0.0
2017-Aug-13 17:28N 47°38' W 122°23'0 0.0
2017-Aug-13 16:58N 47°38' W 122°23'0 0.0
2017-Aug-13 16:28N 47°38' W 122°23'0 0.0
2017-Aug-13 15:58N 47°38' W 122°23'0 0.0
2017-Aug-13 15:28N 47°38' W 122°23'0 0.0
2017-Aug-13 14:58N 47°38' W 122°23'0 0.0
2017-Aug-13 14:28N 47°38' W 122°23'0 0.0
2017-Aug-13 13:58N 47°38' W 122°23'0 0.0
2017-Aug-13 13:28N 47°38' W 122°23'0 0.1
2017-Aug-13 13:00N 47°38' W 122°23'2 3.8
2017-Aug-13 12:30N 47°38' W 122°26'611.7
2017-Aug-13 12:01N 47°43' W 122°28'714.8
2017-Aug-13 11:31N 47°51' W 122°28'714.5
2017-Aug-13 11:00N 47°57' W 122°34'714.4
2017-Aug-13 10:30N 48°03' W 122°39'713.5
2017-Aug-13 10:00N 48°09' W 122°44'815.2
2017-Aug-13 09:30N 48°11' W 122°55'714.2
2017-Aug-13 09:00N 48°12' W 123°06'714.8
2017-Aug-13 08:31N 48°11' W 123°17'612.3
2017-Aug-13 08:01N 48°11' W 123°26'713.8
2017-Aug-13 07:31N 48°17' W 123°28'714.5
2017-Aug-13 07:00N 48°24' W 123°24'1 1.8
2017-Aug-13 06:28N 48°25' W 123°23'0 0.0
2017-Aug-13 05:58N 48°25' W 123°23'0 0.0
2017-Aug-13 05:28N 48°25' W 123°23'0 0.0
2017-Aug-13 04:58N 48°25' W 123°23'0 0.0
2017-Aug-13 04:28N 48°25' W 123°23'0 0.1
2017-Aug-13 03:58N 48°25' W 123°23'0 0.1
2017-Aug-13 03:28N 48°25' W 123°23'0 0.0
2017-Aug-13 02:58N 48°25' W 123°23'0 0.0
2017-Aug-13 02:28N 48°25' W 123°23'0 0.0
2017-Aug-13 01:58N 48°25' W 123°23'0 0.0
2017-Aug-13 01:28N 48°25' W 123°23'0 0.1
2017-Aug-13 01:00N 48°25' W 123°23'2 3.6
2017-Aug-13 00:30N 48°23' W 123°24'4 8.9
2017-Aug-13 00:00N 48°19' W 123°25'612.1
2017-Aug-12 23:30N 48°14' W 123°31'919.0
2017-Aug-12 23:00N 48°13' W 123°45'1019.9
2017-Aug-12 22:30N 48°15' W 123°60'1121.7
2017-Aug-12 22:00N 48°19' W 124°14'1122.5
2017-Aug-12 21:30N 48°24' W 124°30'1019.5
2017-Aug-12 21:00N 48°28' W 124°43'1019.1
2017-Aug-12 20:30N 48°28' W 124°57'1019.4
2017-Aug-12 20:00N 48°30' W 125°12'1121.0
2017-Aug-12 19:30N 48°36' W 125°25'1019.5
2017-Aug-12 19:00N 48°42' W 125°36'1122.0
2017-Aug-12 18:30N 48°49' W 125°48'1122.1
2017-Aug-12 18:00N 48°56' W 126°01'1121.8
2017-Aug-12 17:30N 49°03' W 126°14'1122.1
2017-Aug-12 17:00N 49°11' W 126°27'1122.1
2017-Aug-12 16:30N 49°18' W 126°40'1122.1
2017-Aug-12 16:00N 49°24' W 126°53'1122.5
2017-Aug-12 15:30N 49°31' W 127°07'7722.1
2017-Aug-12 12:00N 50°23' W 128°37'1122.4
2017-Aug-12 11:30N 50°30' W 128°50'1121.9
2017-Aug-12 11:01N 50°38' W 129°03'1122.0
2017-Aug-12 10:30N 50°46' W 129°15'1222.4
2017-Aug-12 09:59N 50°57' W 129°21'1122.2
2017-Aug-12 09:30N 51°07' W 129°27'1122.4
2017-Aug-12 09:00N 51°17' W 129°33'5334.8
2017-Aug-12 09:00N 51°12' W 129°30'1734.6 200 / 181010.010.8 14.6 18.0
2017-Aug-12 08:30N 51°28' W 129°39'1121.9
2017-Aug-12 08:00N 51°38' W 129°45'1121.8
2017-Aug-12 07:31N 51°48' W 129°51'1122.4
2017-Aug-12 07:00N 51°59' W 129°57'2121.0
2017-Aug-12 07:00N 52°00' W 130°00'1019.8 220 / 171013.0 5.4 13.8 19.0
2017-Aug-12 06:30N 52°09' W 130°04'1223.1
2017-Aug-12 06:01N 52°20' W 130°10'1122.9
2017-Aug-12 05:31N 52°31' W 130°16'1122.5
2017-Aug-12 05:00N 52°42' W 130°23'1122.7
2017-Aug-12 04:30N 52°52' W 130°29'1223.4
2017-Aug-12 04:01N 53°03' W 130°36'1223.7
2017-Aug-12 03:30N 53°14' W 130°42'1223.3
2017-Aug-12 02:59N 53°26' W 130°48'1123.6
2017-Aug-12 02:30N 53°37' W 130°52'177 8.6
2017-Aug-11 06:00N 55°54' W 134°06'   240 / 161016.0 5.4 12.7 16.0

Dump ship's entire track history